Etusivu
METAR-TAF:

METAR-TAF

Lentoasemat :

Lawrence J. Timmerman Airport

Milwaukee, Wisconsin, Yhdysvallat

Leveyspiiri: 43-07N, Pituuspiiri: 088-02W, korkeus merenpinnasta: 227 m

Tämänhetkinen sää

Tämä raportti tehtiin 1 tunti ja 5 minuuttia sitten, kello 15.45 UTC
Tuuli 8 kn luoteesta
Lämpötila 24°C
Kosteus 61%
Ilmanpaine 1011 hPa
Näkyvyys: 16.1 km
Hajanaisia pilviä 9000 ft:n korkeudessa

METAR: KMWC 031545Z 32008KT 10SM SCT090 24/16 A2986

Aika: 11:50 (16:50 UTC)


TAF: puuttuu

Säähavainnot ja -ennusteet yli 4000 lentoasemalta (METAR- ja TAF-raportit).

Käytössä olevat sääasemat on merkitty karttaan keltaisilla ja punaisilla pisteillä.

Aseta hiiri pisteen päälle nähdäksesi sääaseman nimen.

Klikkaa sitten nähdäksesi säähavainnot ja -ennusteet.

Kartan vaihtaminen: klikkaa mustalla rastilla varustettuja vihreitä pisteitä, niin voit zoomata sisään; viivalla varustettua vihreää pistettä, niin voit zoomata ulos tai vihreitä nuolia, niin pääset viereisille kartoille.


METAR-TAF: